Cimarron, Colorado
Current Conditions -  °F | °C
As of 10:13 AM on Thursday 18 Dec 2014 (Local Time) from KMTJ Reporting Station
Overcast Overcast  
Wind Chill: 35°   Ceiling: 6500
Heat Index: 35°   Visibility: 7mi
Dew Point: 32°   Wind: 0mph
Humidity: 89%   Direction: NA
Pressure: 30.17"   Gusts: NA
Location:  38.44°N, 107.56°W
Report Text: KMTJ 181713Z AUTO 00000KT 7SM FEW003 SCT016 OVC065 02/00 A3017 RMK AO2 T00170000
Loading
Personal Weather Stations






























Interactive Weather Map New forecast layout! Learn more

10-Day Weather Forecast

Advertisements
Track Severe Weather on mobile